Terminal Aerodrome Forecast
Issued by NWS

Home | Current Version | Previous Version | Graphics & Text | Print | Product List | Glossary On
Versions: 1 2 3 4 5 6 7 8 9 10 11 12 13 14 15 16 17
000
FTUS45 KGGW 180531
TAFSDY
TAF
KSDY 180531Z 1806/1906 VRB03KT P6SM FEW010 OVC045
     FM180900 28004KT 5SM BR BKN010
     FM181700 35005KT P6SM BKN080=

USA.gov is the U.S. government's official web portal to all federal, state and local government web resources and services.